Time;durP1;ratioP1;P1;durP2;ratioP2;P2;SDS_P1;SDS_P2;PMS_P1;PMS_P2;Temp;Humidity;BMP_temperature;BMP_pressure;BME280_temperature;BME280_humidity;BME280_pressure;Samples;Min_cycle;Max_cycle;Signal;HPM_P1;HPM_P2
2021/03/19 00:00:25;;;;;;;16.10;13.23;;;5.40;91.40;;;4.96;84.97;98133.13;5076062;28;21246;-66
2021/03/19 00:02:56;;;;;;;19.50;13.93;;;5.40;91.50;;;4.98;86.44;98138.22;5070283;28;20642;-66
2021/03/19 00:05:28;;;;;;;18.90;13.63;;;5.50;91.70;;;4.98;85.09;98135.63;5075231;28;20630;-66
2021/03/19 00:07:58;;;;;;;23.17;13.30;;;5.40;91.60;;;4.96;85.46;98140.00;5074802;28;20649;-66
2021/03/19 00:10:28;;;;;;;19.33;13.67;;;5.40;91.60;;;4.96;85.56;98137.44;5074470;28;20634;-66
2021/03/19 00:12:58;;;;;;;18.77;14.57;;;5.40;91.60;;;4.96;86.14;98134.84;5072737;28;20671;-67
2021/03/19 00:15:28;;;;;;;22.00;14.77;;;5.40;91.60;;;4.95;85.38;98133.19;5071582;28;21261;-67
2021/03/19 00:17:59;;;;;;;21.87;14.50;;;5.40;91.60;;;4.94;85.60;98128.91;5070687;28;20736;-66
2021/03/19 00:20:34;;;;;;;19.67;14.20;;;5.40;91.60;;;4.91;85.58;98135.06;5071336;28;21211;-66
2021/03/19 00:23:04;;;;;;;19.23;14.70;;;5.40;91.70;;;4.87;85.94;98136.13;5073380;28;20631;-66
2021/03/19 00:25:32;;;;;;;18.50;14.60;;;5.40;91.70;;;4.86;86.16;98131.03;5070930;28;21200;-67
2021/03/19 00:28:00;;;;;;;21.57;15.27;;;5.30;91.80;;;4.83;85.42;98133.75;5073937;28;20657;-67
2021/03/19 00:30:29;;;;;;;19.00;14.07;;;5.30;91.80;;;4.81;86.26;98122.63;5072625;28;20647;-66
2021/03/19 00:32:57;;;;;;;19.23;13.73;;;5.30;91.80;;;4.77;86.95;98126.25;5071544;28;20630;-66
2021/03/19 00:35:25;;;;;;;20.87;14.90;;;5.30;91.90;;;4.74;86.71;98122.06;5072238;28;20766;-66
2021/03/19 00:37:53;;;;;;;19.43;14.80;;;5.30;92.00;;;4.73;87.08;98115.22;5072283;28;20696;-66
2021/03/19 00:40:23;;;;;;;19.70;14.27;;;5.20;92.00;;;4.73;86.11;98122.13;5076419;28;20693;-66
2021/03/19 00:42:50;;;;;;;20.80;14.33;;;5.20;92.10;;;4.72;86.11;98120.44;5071663;28;20635;-66
2021/03/19 00:45:19;;;;;;;18.47;13.90;;;5.20;92.10;;;4.70;86.82;98120.50;5089761;28;20631;-66
2021/03/19 00:47:50;;;;;;;19.73;14.60;;;5.20;92.20;;;4.68;87.01;98121.50;5072411;28;20676;-66
2021/03/19 00:50:24;;;;;;;20.50;15.80;;;5.20;92.30;;;4.66;86.25;98123.34;5071340;28;20660;-66
2021/03/19 00:52:52;;;;;;;23.10;16.07;;;5.10;92.30;;;4.66;87.08;98123.34;5071965;28;21199;-66
2021/03/19 00:55:21;;;;;;;21.43;15.47;;;5.10;92.40;;;4.67;87.51;98125.00;5072340;28;20631;-66
2021/03/19 00:57:49;;;;;;;19.20;14.83;;;5.10;92.30;;;4.68;87.48;98126.69;5071112;28;21281;-66
2021/03/19 01:00:19;;;;;;;21.57;15.17;;;5.10;92.40;;;4.64;86.61;98119.97;5069917;28;21306;-66
2021/03/19 01:02:48;;;;;;;19.50;14.07;;;5.10;92.40;;;4.66;86.46;98119.88;5074329;28;20642;-66
2021/03/19 01:05:19;;;;;;;21.00;16.13;;;5.10;92.40;;;4.65;87.12;98116.47;5072315;28;20638;-66
2021/03/19 01:07:47;;;;;;;21.60;15.33;;;5.10;92.40;;;4.64;87.15;98112.22;5069098;28;20760;-66
2021/03/19 01:10:20;;;;;;;21.87;14.87;;;5.10;92.50;;;4.61;87.42;98114.94;5071747;28;20643;-64
2021/03/19 01:12:49;;;;;;;23.73;14.80;;;5.10;92.50;;;4.57;86.53;98116.00;5070046;28;20634;-64
2021/03/19 01:15:17;;;;;;;18.83;14.20;;;5.00;92.50;;;4.55;87.06;98111.78;5070769;28;20664;-67
2021/03/19 01:17:45;;;;;;;21.07;14.83;;;5.00;92.60;;;4.51;87.72;98113.69;5071497;28;21143;-67
2021/03/19 01:20:16;;;;;;;19.13;14.13;;;5.00;92.80;;;4.50;87.85;98114.56;5080704;28;20746;-67
2021/03/19 01:22:43;;;;;;;18.27;13.00;;;5.00;92.80;;;4.48;88.42;98113.81;5073017;28;20637;-67
2021/03/19 01:25:17;;;;;;;18.73;14.10;;;5.00;92.90;;;4.47;87.89;98117.28;5069358;28;23033;-67
2021/03/19 01:27:46;;;;;;;17.53;14.00;;;5.00;93.00;;;4.46;88.07;98115.59;5069805;28;21948;-67
2021/03/19 01:30:18;;;;;;;23.17;15.50;;;5.00;93.00;;;4.45;87.42;98108.78;5072022;28;20685;-67
2021/03/19 01:32:47;;;;;;;19.63;14.30;;;4.90;93.00;;;4.43;87.48;98108.00;5076479;28;20634;-67
2021/03/19 01:35:17;;;;;;;21.70;14.63;;;4.90;93.00;;;4.43;88.49;98095.09;5071869;28;20662;-67
2021/03/19 01:37:45;;;;;;;23.73;15.57;;;4.90;93.10;;;4.43;88.17;98092.50;5071116;28;20681;-67
2021/03/19 01:40:15;;;;;;;21.13;15.43;;;4.90;93.10;;;4.41;87.74;98091.75;5071954;28;20638;-67
2021/03/19 01:42:44;;;;;;;22.67;15.70;;;4.90;93.10;;;4.41;87.97;98088.34;5070020;28;21225;-67
2021/03/19 01:46:09;;;;;;;23.40;15.80;;;4.90;93.10;;;4.43;87.21;98084.75;5070689;28;21196;-68
2021/03/19 01:49:32;;;;;;;23.13;16.77;;;4.90;93.20;;;4.43;88.21;98083.94;5072345;28;20636;-68
2021/03/19 01:52:56;;;;;;;24.10;16.40;;;4.90;93.20;;;4.43;88.16;98086.50;5088433;28;20645;-68
2021/03/19 01:56:20;;;;;;;24.40;17.13;;;4.90;93.20;;;4.40;87.84;98073.75;5071489;28;20619;-68
2021/03/19 01:59:44;;;;;;;23.63;16.67;;;4.90;93.30;;;4.41;88.76;98075.44;5073272;28;20687;-68
2021/03/19 02:03:09;;;;;;;23.70;15.57;;;4.90;93.40;;;4.42;88.01;98071.94;5070595;28;21200;-68
2021/03/19 02:06:32;;;;;;;22.57;16.63;;;4.90;93.40;;;4.45;87.99;98077.81;5073741;28;20981;-68
2021/03/19 02:09:56;;;;;;;26.03;16.63;;;4.90;93.30;;;4.46;88.61;98079.47;5066815;28;21203;-68
2021/03/19 02:13:20;;;;;;;21.83;16.53;;;4.90;93.30;;;4.47;87.34;98078.56;5072023;28;20627;-68
2021/03/19 02:16:44;;;;;;;22.10;16.50;;;4.90;93.30;;;4.47;88.90;98082.91;5071533;28;20642;-68
2021/03/19 02:20:08;;;;;;;21.90;16.63;;;4.90;93.40;;;4.47;88.35;98081.16;5070607;28;20665;-68
2021/03/19 02:23:28;;;;;;;24.90;16.80;;;4.90;93.60;;;4.47;89.02;98088.91;5074944;28;21000;-68
2021/03/19 02:26:51;;;;;;;22.57;15.03;;;4.90;93.80;;;4.42;89.11;98085.69;5048578;28;20650;-68
2021/03/19 02:30:15;;;;;;;23.57;15.90;;;4.90;93.70;;;4.40;88.96;98091.81;5075233;28;20681;-68
2021/03/19 02:32:44;;;;;;;24.57;17.77;;;4.90;93.70;;;4.35;88.31;98086.84;5073683;28;20642;-68
2021/03/19 02:35:16;;;;;;;28.10;17.37;;;4.80;93.70;;;4.34;87.94;98084.34;5074191;28;21229;-68
2021/03/19 02:37:44;;;;;;;26.93;16.47;;;4.80;93.80;;;4.34;88.75;98080.00;5074468;28;20736;-68
2021/03/19 02:40:16;;;;;;;25.13;17.70;;;4.80;93.90;;;4.35;88.18;98086.84;5073563;28;20691;-68
2021/03/19 02:42:44;;;;;;;23.93;18.10;;;4.80;94.00;;;4.31;88.54;98081.91;5075380;28;20634;-68
2021/03/19 02:45:16;;;;;;;32.40;18.40;;;4.80;94.00;;;4.33;88.63;98083.50;5071899;28;20631;-68
2021/03/19 02:47:44;;;;;;;29.00;19.27;;;4.80;94.10;;;4.34;89.34;98074.00;5073978;28;20643;-68
2021/03/19 02:50:13;;;;;;;25.93;18.23;;;4.80;94.10;;;4.36;89.35;98070.47;5073768;28;20667;-68
2021/03/19 02:52:43;;;;;;;26.40;17.73;;;4.80;94.10;;;4.37;88.35;98068.72;5073857;28;20647;-68
2021/03/19 02:55:15;;;;;;;25.87;17.50;;;4.80;94.00;;;4.37;88.80;98069.53;5073874;28;21216;-68
2021/03/19 02:57:42;;;;;;;25.90;17.77;;;4.80;94.00;;;4.37;89.98;98066.13;5072332;28;20642;-68
2021/03/19 03:00:17;;;;;;;28.93;17.90;;;4.80;94.10;;;4.39;88.37;98066.91;5081866;28;21185;-68
2021/03/19 03:02:45;;;;;;;26.23;18.83;;;4.80;94.20;;;4.37;89.37;98068.72;5082270;28;20631;-68
2021/03/19 03:05:16;;;;;;;30.53;19.83;;;4.80;94.20;;;4.34;89.03;98064.53;5075753;28;22958;-68
2021/03/19 03:07:44;;;;;;;26.60;19.13;;;4.80;94.10;;;4.33;88.92;98070.59;5071124;28;20992;-68
2021/03/19 03:10:16;;;;;;;27.73;19.70;;;4.80;94.10;;;4.37;88.79;98073.88;5074481;28;20662;-68
2021/03/19 03:12:44;;;;;;;29.27;19.50;;;4.80;94.10;;;4.38;89.03;98071.22;5073341;28;20645;-68
2021/03/19 03:15:18;;;;;;;32.10;19.83;;;4.80;94.10;;;4.40;88.89;98073.75;5074992;28;20722;-68
2021/03/19 03:17:47;;;;;;;28.30;20.60;;;4.90;94.00;;;4.40;89.16;98069.41;5072247;28;20640;-68
2021/03/19 03:20:19;;;;;;;28.90;19.93;;;4.90;93.90;;;4.43;88.86;98068.44;5072908;28;20638;-68
2021/03/19 03:22:48;;;;;;;26.87;19.93;;;4.90;93.90;;;4.44;88.98;98070.97;5075399;28;20634;-68
2021/03/19 03:25:18;;;;;;;27.60;18.80;;;4.90;93.90;;;4.42;88.94;98067.63;5073190;28;20651;-68
2021/03/19 03:27:47;;;;;;;27.97;18.43;;;4.90;93.90;;;4.43;88.55;98063.28;5074178;28;20632;-68
2021/03/19 03:30:20;;;;;;;33.77;20.60;;;4.90;93.90;;;4.41;88.78;98068.50;5071329;28;20666;-68
2021/03/19 03:32:50;;;;;;;32.20;18.80;;;4.90;93.90;;;4.41;88.43;98058.19;5071772;28;20640;-68
2021/03/19 03:35:19;;;;;;;26.97;18.40;;;4.90;93.80;;;4.41;89.39;98065.09;5074949;28;20653;-68
2021/03/19 03:37:48;;;;;;;28.00;19.60;;;4.90;93.90;;;4.40;87.92;98063.41;5071834;28;20646;-68
2021/03/19 03:40:20;;;;;;;29.50;20.00;;;4.80;94.20;;;4.39;88.77;98062.59;5071290;28;20638;-68
2021/03/19 03:42:48;;;;;;;27.30;18.97;;;4.90;93.90;;;4.42;89.32;98062.47;5074053;28;20713;-68
2021/03/19 03:45:16;;;;;;;26.33;19.23;;;4.90;94.20;;;4.43;88.53;98056.38;5070900;28;20635;-68
2021/03/19 03:47:44;;;;;;;27.40;18.63;;;4.90;93.90;;;4.43;89.47;98056.38;5070134;28;20646;-68
2021/03/19 03:50:19;;;;;;;29.13;20.63;;;4.90;93.90;;;4.43;89.12;98056.38;5074684;28;20649;-68
2021/03/19 03:53:08;;;;;;;36.13;27.27;;;4.90;94.00;;;4.52;88.92;98058.53;5070636;28;20755;-68
2021/03/19 03:55:37;;;;;;;35.37;21.50;;;5.00;94.10;;;4.61;87.81;98062.47;5072221;28;20871;-68
2021/03/19 03:58:06;;;;;;;31.03;20.87;;;5.00;94.00;;;4.65;88.14;98064.84;5070551;28;20665;-68
2021/03/19 04:00:34;;;;;;;31.30;21.13;;;5.00;93.80;;;4.64;88.13;98063.16;5073892;28;21435;-68
2021/03/19 04:03:04;;;;;;;34.07;21.83;;;5.00;93.60;;;4.62;88.11;98059.81;5072313;28;21496;-68
2021/03/19 04:05:37;;;;;;;32.17;20.33;;;5.00;93.50;;;4.61;88.08;98063.28;5070773;28;20638;-68
2021/03/19 04:08:06;;;;;;;27.93;19.37;;;5.00;93.60;;;4.61;87.97;98065.03;5071131;28;20616;-68
2021/03/19 04:10:34;;;;;;;26.90;18.97;;;5.00;93.70;;;4.60;89.11;98061.63;5071809;28;20642;-68
2021/03/19 04:13:02;;;;;;;27.20;18.80;;;5.00;93.70;;;4.56;88.12;98067.84;5086295;28;21360;-68
2021/03/19 04:15:31;;;;;;;28.47;19.70;;;5.10;93.70;;;4.54;87.84;98059.31;5071301;28;20635;-68
2021/03/19 04:18:00;;;;;;;28.23;19.10;;;5.00;93.60;;;4.52;88.55;98058.53;5073582;28;20802;-68
2021/03/19 04:20:29;;;;;;;31.60;20.30;;;5.00;93.60;;;4.54;89.04;98067.06;5072455;28;21253;-68
2021/03/19 04:22:58;;;;;;;27.90;19.27;;;5.00;93.70;;;4.55;88.54;98062.75;5072283;28;20641;-68
2021/03/19 04:25:26;;;;;;;27.73;19.00;;;5.00;93.80;;;4.57;88.65;98060.91;5072556;28;20642;-68
2021/03/19 04:27:59;;;;;;;31.97;19.60;;;5.00;93.70;;;4.57;89.21;98068.66;5071599;28;20660;-68
2021/03/19 04:30:29;;;;;;;29.77;19.63;;;5.00;93.70;;;4.57;88.67;98069.53;5072659;28;20689;-68
2021/03/19 04:32:59;;;;;;;27.67;20.03;;;5.00;93.70;;;4.57;88.28;98061.78;5071775;28;21473;-68
2021/03/19 04:35:31;;;;;;;28.20;20.30;;;5.10;93.90;;;4.59;88.78;98072.84;5073599;28;21253;-68
2021/03/19 04:38:04;;;;;;;28.30;20.30;;;5.10;93.90;;;4.60;88.47;98071.97;5069946;28;21019;-68
2021/03/19 04:40:32;;;;;;;26.53;19.00;;;5.10;93.80;;;4.58;88.67;98070.34;5071057;28;20653;-68
2021/03/19 04:43:00;;;;;;;28.20;19.03;;;5.10;93.80;;;4.57;89.46;98069.53;5073625;28;20679;-67
2021/03/19 04:45:28;;;;;;;23.17;17.90;;;5.10;93.90;;;4.58;87.96;98076.34;5075226;28;20642;-67
2021/03/19 04:47:56;;;;;;;27.07;20.20;;;5.00;93.80;;;4.57;88.35;98072.09;5071205;28;21247;-67
2021/03/19 04:50:25;;;;;;;24.23;17.53;;;5.10;93.70;;;4.54;88.22;98074.81;5073501;28;20629;-67
2021/03/19 04:52:53;;;;;;;29.27;20.03;;;5.00;93.60;;;4.52;88.16;98070.63;5070658;28;20635;-67
2021/03/19 04:55:21;;;;;;;26.43;18.17;;;5.00;93.60;;;4.49;87.74;98074.16;5071473;28;20767;-67
2021/03/19 04:57:49;;;;;;;27.50;18.87;;;5.00;93.60;;;4.49;88.50;98065.59;5071494;28;20623;-67
2021/03/19 05:00:18;;;;;;;28.00;19.63;;;5.00;93.60;;;4.48;87.78;98067.34;5072988;28;20639;-67
2021/03/19 05:02:48;;;;;;;28.83;18.20;;;5.00;93.60;;;4.46;88.96;98074.31;5070412;28;20671;-67
2021/03/19 05:05:19;;;;;;;26.80;19.73;;;5.00;93.70;;;4.47;88.78;98070.81;5071923;28;20647;-67
2021/03/19 05:07:47;;;;;;;28.43;20.80;;;5.00;93.70;;;4.46;88.82;98071.72;5069766;28;20619;-67
2021/03/19 05:10:18;;;;;;;28.03;19.70;;;4.90;94.10;;;4.45;88.41;98072.66;5072659;28;20640;-67
2021/03/19 05:12:47;;;;;;;25.73;17.90;;;5.00;93.70;;;4.44;88.41;98068.38;5072402;28;20626;-67
2021/03/19 05:15:16;;;;;;;28.03;19.77;;;4.90;93.70;;;4.42;87.73;98071.94;5069458;28;20674;-67
2021/03/19 05:17:43;;;;;;;27.50;20.07;;;4.90;93.70;;;4.43;88.52;98087.34;5070039;28;21171;-67
2021/03/19 05:20:14;;;;;;;25.70;19.10;;;4.90;93.70;;;4.45;88.21;98070.06;5073853;28;20749;-67
2021/03/19 05:22:42;;;;;;;29.23;20.50;;;4.90;93.80;;;4.48;87.81;98075.09;5070984;28;20761;-68
2021/03/19 05:25:14;;;;;;;31.73;19.87;;;4.90;93.80;;;4.46;88.30;98078.63;5072095;28;20973;-67
2021/03/19 05:27:44;;;;;;;29.77;19.50;;;5.00;93.70;;;4.47;88.14;98080.31;5072913;28;20671;-65
2021/03/19 05:30:16;;;;;;;25.37;18.80;;;4.90;93.70;;;4.45;87.84;98080.41;5073774;28;20685;-65
2021/03/19 05:32:44;;;;;;;27.43;19.37;;;4.90;93.70;;;4.44;88.63;98083.88;5071132;28;20630;-65
2021/03/19 05:35:13;;;;;;;28.37;18.63;;;4.90;93.70;;;4.45;88.42;98089.84;5072357;28;20673;-65
2021/03/19 05:37:42;;;;;;;28.70;20.37;;;4.90;93.60;;;4.46;88.71;98088.97;5070648;28;20726;-65
2021/03/19 05:40:18;;;;;;;27.50;19.20;;;5.00;93.70;;;4.46;88.55;98094.97;5070630;28;20687;-68
2021/03/19 05:42:46;;;;;;;28.73;19.97;;;4.90;93.60;;;4.45;88.32;98098.47;5071964;28;20645;-66
2021/03/19 05:45:25;;;;;;;30.00;20.63;;;5.00;93.70;;;4.45;87.82;98097.59;5069640;28;20638;-69
2021/03/19 05:47:54;;;;;;;32.10;20.50;;;4.90;93.70;;;4.43;89.14;98100.25;5071396;28;20638;-69
2021/03/19 05:50:28;;;;;;;26.07;19.70;;;4.90;93.70;;;4.43;88.51;98105.41;5070538;28;20692;-69
2021/03/19 05:53:04;;;;;;;30.83;21.30;;;4.90;93.70;;;4.47;88.14;98106.13;5069476;28;20670;-69
2021/03/19 05:55:38;;;;;;;28.30;19.80;;;5.00;93.90;;;4.47;89.04;98109.56;5070905;28;20696;-69
2021/03/19 05:58:13;;;;;;;27.77;19.50;;;4.90;93.90;;;4.49;89.61;98110.31;5071790;28;21414;-69
2021/03/19 06:00:41;;;;;;;29.87;20.30;;;5.00;94.00;;;4.51;88.76;98111.09;5073540;28;20634;-69
2021/03/19 06:03:09;;;;;;;29.20;20.67;;;5.00;94.00;;;4.55;89.17;98119.53;5074863;28;20991;-69
2021/03/19 06:05:58;;;;;;;30.10;21.20;;;5.00;94.00;;;4.57;88.40;98103.09;5092414;28;20746;-68
2021/03/19 06:08:34;;;;;;;32.47;21.20;;;5.00;94.00;;;4.63;89.38;98115.72;5074194;28;20751;-68
2021/03/19 06:11:12;;;;;;;31.90;21.10;;;5.10;94.10;;;4.68;87.94;98118.09;5076048;28;20673;-70
2021/03/19 06:13:47;;;;;;;34.10;22.10;;;5.10;94.00;;;4.68;88.71;98118.94;5075940;28;20637;-70
2021/03/19 06:16:38;;;;;;;29.90;20.33;;;5.10;93.90;;;4.71;88.35;98122.19;5074153;28;20628;-71
2021/03/19 06:19:33;;;;;;;29.30;20.43;;;5.20;94.00;;;4.72;88.40;98123.03;5078656;28;20741;-71
2021/03/19 06:22:25;;;;;;;33.80;20.23;;;5.20;94.00;;;4.73;88.81;98124.72;5074482;28;20638;-70
2021/03/19 06:25:16;;;;;;;33.13;20.50;;;5.20;94.00;;;4.76;88.87;98124.56;5075360;28;20634;-70
2021/03/19 06:27:53;;;;;;;29.73;19.43;;;5.20;94.00;;;4.78;89.79;98117.59;5075562;28;20654;-70
2021/03/19 06:30:29;;;;;;;93.40;46.33;;;5.20;94.10;;;4.81;88.38;98122.63;5073773;28;20642;-70
2021/03/19 06:33:26;;;;;;;45.07;28.67;;;5.30;94.30;;;4.83;89.24;98120.81;5075061;28;21721;-70
2021/03/19 06:36:21;;;;;;;31.60;20.57;;;5.30;94.20;;;4.86;89.04;98124.09;5074309;28;20662;-70
2021/03/19 06:38:51;;;;;;;29.40;21.40;;;5.30;94.00;;;4.91;88.66;98123.88;5058522;28;20667;-70
2021/03/19 06:41:28;;;;;;;31.97;21.00;;;5.30;93.90;;;4.85;87.87;98130.16;5075535;28;20623;-70
2021/03/19 06:44:17;;;;;;;34.97;23.07;;;5.20;93.50;;;4.82;87.97;98129.47;5075703;28;21199;-70
2021/03/19 06:46:50;;;;;;;33.60;22.30;;;5.20;93.80;;;4.82;89.14;98124.31;5079818;28;20637;-70
2021/03/19 06:49:21;;;;;;;30.40;21.73;;;5.30;94.10;;;4.85;88.48;98121.59;5074537;28;20630;-70
2021/03/19 06:51:54;;;;;;;28.90;20.60;;;5.30;93.90;;;4.88;88.49;98124.03;5074196;28;21298;-70
2021/03/19 06:54:25;;;;;;;33.83;21.17;;;5.30;94.00;;;4.87;87.94;98133.53;5078582;28;20639;-70
2021/03/19 06:57:07;;;;;;;31.87;21.23;;;5.40;94.00;;;4.90;88.45;98124.78;5090646;28;20614;-70
2021/03/19 06:59:44;;;;;;;29.97;21.20;;;5.40;93.90;;;4.93;89.54;98130.66;5085690;28;20717;-70
2021/03/19 07:02:57;;;;;;;34.90;24.03;;;5.40;94.10;;;4.94;88.06;98129.75;5087922;28;20631;-70
2021/03/19 07:05:52;;;;;;;35.73;23.30;;;5.40;94.10;;;4.99;87.94;98134.69;5090862;28;20631;-70
2021/03/19 07:08:36;;;;;;;35.17;23.57;;;5.40;93.90;;;5.03;88.09;98131.09;5074764;28;20645;-71
2021/03/19 07:11:34;;;;;;;32.93;22.60;;;5.40;93.90;;;4.99;88.55;98127.81;5077489;28;20653;-70
2021/03/19 07:14:57;;;;;;;38.70;23.77;;;5.40;93.70;;;4.99;87.97;98132.13;5072284;28;20639;-70
2021/03/19 07:17:50;;;;;;;35.43;22.80;;;5.50;93.70;;;5.00;88.63;98136.38;5069900;28;20644;-70
2021/03/19 07:20:53;;;;;;;32.83;22.57;;;5.50;93.80;;;5.04;88.29;98138.75;5075361;28;20690;-70
2021/03/19 07:23:23;;;;;;;25.03;16.40;;;5.50;93.90;;;5.05;86.76;98134.41;5078468;28;21203;-70
2021/03/19 07:26:12;;;;;;;22.17;15.60;;;5.50;93.30;;;5.06;87.42;98149.03;5083820;28;20638;-70
2021/03/19 07:29:21;;;;;;;30.50;19.03;;;5.40;93.00;;;5.07;86.63;98151.53;5089662;28;20627;-70
2021/03/19 07:32:17;;;;;;;31.43;20.67;;;5.40;93.30;;;5.11;86.96;98152.22;5092337;28;20654;-70
2021/03/19 07:34:54;;;;;;;39.23;23.10;;;5.50;93.10;;;5.11;87.03;98152.22;5093045;28;20689;-70
2021/03/19 07:37:58;;;;;;;32.97;20.37;;;5.50;93.00;;;5.10;87.01;98155.72;5092990;28;20618;-70
2021/03/19 07:40:40;;;;;;;29.37;20.77;;;5.50;93.00;;;5.14;87.61;98160.66;5093720;28;20654;-70
2021/03/19 07:43:50;;;;;;;27.80;17.63;;;5.50;93.30;;;5.23;87.13;98163.69;5093606;28;20618;-71
2021/03/19 07:46:32;;;;;;;30.60;20.00;;;5.60;93.50;;;5.29;87.30;98166.00;5090555;28;20637;-70
2021/03/19 07:49:28;;;;;;;29.97;20.40;;;5.70;93.30;;;5.32;86.93;98173.63;5080157;28;20646;-72
2021/03/19 07:52:10;;;;;;;29.07;19.90;;;5.70;93.20;;;5.32;87.75;98172.75;5074443;28;20627;-71
2021/03/19 07:54:50;;;;;;;31.50;20.30;;;5.70;93.30;;;5.33;87.10;98154.59;5074623;28;20729;-71
2021/03/19 07:57:26;;;;;;;29.70;19.00;;;5.70;93.10;;;5.34;86.46;98166.59;5076992;28;21463;-71
2021/03/19 08:00:06;;;;;;;24.73;17.50;;;5.80;93.10;;;5.38;86.59;98162.97;5073540;28;20653;-72
2021/03/19 08:02:50;;;;;;;28.40;19.80;;;5.80;93.20;;;5.37;86.68;98161.31;5077714;28;21190;-72
2021/03/19 08:05:25;;;;;;;24.63;17.47;;;5.80;93.20;;;5.40;86.92;98166.31;5088984;28;21186;-72
2021/03/19 08:08:13;;;;;;;26.50;19.60;;;5.80;93.10;;;5.42;87.35;98164.50;5087110;28;20631;-71
2021/03/19 08:10:54;;;;;;;28.77;19.57;;;5.80;93.10;;;5.38;87.60;98173.31;5089309;28;20619;-72
2021/03/19 08:13:38;;;;;;;27.80;19.40;;;5.80;93.10;;;5.41;87.15;98167.16;5089910;28;20739;-66
2021/03/19 08:16:15;;;;;;;29.93;19.53;;;5.80;93.30;;;5.43;87.18;98171.34;5087538;28;21132;-71
2021/03/19 08:18:50;;;;;;;27.20;18.50;;;5.80;93.40;;;5.43;87.21;98173.13;5088315;28;20647;-71
2021/03/19 08:21:33;;;;;;;27.67;18.53;;;5.80;93.20;;;5.42;86.41;98182.59;5087805;28;21201;-71
2021/03/19 08:24:28;;;;;;;28.30;18.90;;;5.80;93.00;;;5.44;87.05;98180.81;5086877;28;21231;-71
2021/03/19 08:27:10;;;;;;;28.00;19.57;;;5.80;93.10;;;5.47;86.96;98172.88;5086544;28;20650;-71
2021/03/19 08:29:51;;;;;;;27.07;19.17;;;5.90;93.20;;;5.45;86.91;98190.22;5089448;28;20639;-69
2021/03/19 08:33:01;;;;;;;28.80;18.97;;;5.90;93.20;;;5.43;86.47;98192.03;5082640;28;20640;-69
2021/03/19 08:35:34;;;;;;;24.23;17.40;;;5.80;92.80;;;5.45;86.45;98192.78;5079829;28;21020;-69
2021/03/19 08:38:20;;;;;;;30.17;19.27;;;5.80;93.00;;;5.53;87.55;98187.25;5084838;28;20638;-69
2021/03/19 08:40:59;;;;;;;22.60;16.30;;;5.90;93.40;;;5.51;86.98;98181.34;5086614;28;21494;-69
2021/03/19 08:43:35;;;;;;;21.67;15.60;;;5.90;92.90;;;5.54;87.35;98199.31;5083983;28;20718;-69
2021/03/19 08:46:11;;;;;;;27.47;17.07;;;5.90;93.30;;;5.57;86.92;98199.16;5087294;28;21008;-69
2021/03/19 08:48:50;;;;;;;22.37;15.70;;;5.90;93.30;;;5.56;86.35;98197.47;5080421;28;21031;-69
2021/03/19 08:51:36;;;;;;;19.77;14.30;;;5.90;93.00;;;5.58;86.69;98195.63;5089486;28;20622;-69
2021/03/19 08:54:26;;;;;;;28.70;19.50;;;6.00;93.00;;;5.58;86.94;98206.84;5086208;28;21169;-69
2021/03/19 08:57:31;;;;;;;23.73;18.60;;;6.00;93.10;;;5.60;86.69;98199.84;5085604;28;20646;-71
2021/03/19 09:00:00;;;;;;;29.73;16.27;;;6.00;93.10;;;5.68;86.87;98208.06;5088333;28;20654;-71
2021/03/19 09:02:59;;;;;;;20.27;14.37;;;6.10;93.00;;;5.72;86.21;98196.69;5087804;28;20646;-71
2021/03/19 09:05:34;;;;;;;24.57;16.13;;;6.10;92.70;;;5.78;85.02;98210.19;5005409;28;20627;-71
2021/03/19 09:08:25;;;;;;;19.13;13.30;;;6.10;92.30;;;5.94;84.98;98210.28;5073967;28;21002;-71
2021/03/19 09:11:10;;;;;;;20.90;14.77;;;6.20;92.20;;;6.07;84.12;98204.44;5086994;28;21179;-72
2021/03/19 09:13:54;;;;;;;19.00;12.37;;;6.30;91.80;;;6.09;83.59;98208.63;5085868;28;20627;-72
2021/03/19 09:16:55;;;;;;;17.50;12.80;;;6.30;91.30;;;6.18;83.59;98209.94;5085295;28;20705;-70
2021/03/19 09:19:59;;;;;;;17.23;11.90;;;6.40;91.40;;;6.35;82.54;98209.94;5087858;28;20706;-69
2021/03/19 09:22:45;;;;;;;15.40;10.50;;;6.50;91.10;;;6.40;81.64;98206.19;5040782;28;20652;-69
2021/03/19 09:25:40;;;;;;;13.30;9.87;;;6.60;90.30;;;6.36;80.32;98215.06;5087604;28;20634;-69
2021/03/19 09:28:56;;;;;;;15.07;10.30;;;6.60;88.70;;;6.41;79.83;98215.66;5084800;28;20637;-69
2021/03/19 09:31:48;;;;;;;14.43;10.27;;;6.60;88.10;;;6.56;81.48;98212.28;5078035;28;20636;-69
2021/03/19 09:34:24;;;;;;;11.00;8.50;;;6.80;90.00;;;6.47;79.89;98214.53;5088555;28;20631;-71
2021/03/19 09:37:12;;;;;;;10.33;7.80;;;6.70;87.10;;;6.31;78.65;98217.00;5092349;28;21195;-72
2021/03/19 09:40:38;;;;;;;9.87;8.00;;;6.60;85.10;;;6.11;78.64;98205.97;5090629;28;20654;-72
2021/03/19 09:43:09;;;;;;;10.83;7.90;;;6.40;85.10;;;6.06;79.88;98215.72;5085950;28;20631;-72
2021/03/19 09:45:45;;;;;;;10.90;7.93;;;6.40;86.50;;;6.02;79.74;98216.78;5088749;28;20648;-72
2021/03/19 09:48:33;;;;;;;9.60;6.97;;;6.30;87.10;;;5.78;79.42;98222.28;5087926;28;20721;-72
2021/03/19 09:51:35;;;;;;;10.13;7.83;;;6.10;86.10;;;5.69;80.47;98220.94;5092366;28;20724;-72
2021/03/19 09:54:32;;;;;;;10.37;7.10;;;5.90;86.70;;;5.44;81.37;98229.94;5087802;28;20641;-72
2021/03/19 09:57:12;;;;;;;10.97;7.70;;;5.70;88.40;;;5.46;82.36;98235.84;5080912;28;21018;-72
2021/03/19 09:59:43;;;;;;;7.37;5.97;;;5.70;90.10;;;5.52;82.76;98232.13;5090776;28;20654;-72
2021/03/19 10:02:29;;;;;;;9.30;7.00;;;5.70;90.40;;;5.60;82.62;98242.97;5088881;28;20626;-71
2021/03/19 10:05:12;;;;;;;8.20;6.13;;;5.80;90.70;;;5.60;82.55;98243.81;5092944;28;20710;-71
2021/03/19 10:07:46;;;;;;;8.37;6.60;;;5.80;90.60;;;5.60;82.60;98251.56;5088186;28;21208;-71
2021/03/19 10:10:28;;;;;;;8.87;6.30;;;5.80;90.60;;;5.25;82.03;98242.00;5085969;28;20633;-72
2021/03/19 10:13:09;;;;;;;6.90;5.40;;;5.40;89.70;;;5.32;83.38;98255.47;5085863;28;20630;-71
2021/03/19 10:15:37;;;;;;;7.13;5.13;;;5.50;90.50;;;5.27;82.90;98255.69;5084629;28;20666;-71
2021/03/19 10:18:07;;;;;;;7.07;5.43;;;5.50;90.50;;;5.22;83.20;98257.66;5088428;28;20626;-71
2021/03/19 10:20:39;;;;;;;6.67;5.70;;;5.40;90.50;;;5.07;83.17;98254.06;5088814;28;21201;-71
2021/03/19 10:23:16;;;;;;;7.13;5.77;;;5.30;90.40;;;4.91;82.99;98260.81;5084059;28;20726;-71
2021/03/19 10:25:45;;;;;;;7.43;5.80;;;5.10;90.70;;;4.85;83.55;98263.66;5081807;28;21284;-71
2021/03/19 10:28:25;;;;;;;6.73;5.20;;;5.10;91.50;;;4.76;82.93;98262.28;5086422;28;20650;-71
2021/03/19 10:30:55;;;;;;;7.33;5.73;;;5.00;90.50;;;4.64;83.08;98268.91;5091998;28;20606;-71
2021/03/19 10:33:31;;;;;;;6.90;5.67;;;4.90;90.60;;;4.61;84.82;98274.19;5091954;28;20634;-71
2021/03/19 10:36:03;;;;;;;8.00;5.70;;;4.90;91.00;;;4.49;84.19;98272.94;5087813;28;20682;-71
2021/03/19 10:38:39;;;;;;;7.60;5.80;;;4.80;91.10;;;4.40;83.24;98275.91;5086917;28;20703;-71
2021/03/19 10:41:21;;;;;;;9.00;6.10;;;4.70;90.80;;;4.33;84.39;98274.50;5088641;28;20653;-71
2021/03/19 10:43:55;;;;;;;9.00;5.53;;;4.60;91.10;;;4.35;83.60;98271.88;5090841;28;20646;-71
2021/03/19 10:46:29;;;;;;;9.10;5.90;;;4.60;91.40;;;4.44;85.02;98281.81;5089293;28;20637;-71
2021/03/19 10:49:01;;;;;;;7.03;5.10;;;4.70;92.10;;;4.54;85.68;98286.53;5089276;28;20629;-71
2021/03/19 10:51:41;;;;;;;6.53;5.60;;;4.80;92.50;;;4.53;84.50;98281.44;5089317;28;20631;-71
2021/03/19 10:54:18;;;;;;;7.97;5.87;;;4.80;91.20;;;4.58;83.44;98280.31;5090413;28;20672;-71
2021/03/19 10:56:50;;;;;;;7.63;5.57;;;4.80;91.60;;;4.58;83.98;98282.91;5082061;28;21184;-71
2021/03/19 10:59:31;;;;;;;6.77;5.77;;;4.80;91.30;;;4.56;83.55;98278.72;5092254;28;20670;-71
2021/03/19 11:02:21;;;;;;;9.07;6.60;;;4.80;90.90;;;4.65;83.07;98284.34;5085238;28;20645;-71
2021/03/19 11:05:19;;;;;;;7.43;5.20;;;4.90;91.20;;;4.57;83.33;98285.53;5086938;28;21006;-71
2021/03/19 11:07:47;;;;;;;11.37;7.83;;;4.80;91.10;;;4.46;84.11;98291.16;5084300;28;20645;-71
2021/03/19 11:10:27;;;;;;;8.40;6.37;;;4.70;91.00;;;4.27;82.90;98290.25;5083752;28;20643;-71